Time;durP1;ratioP1;P1;durP2;ratioP2;P2;SDS_P1;SDS_P2;PMS_P1;PMS_P2;Temp;Humidity;BMP_temperature;BMP_pressure;BME280_temperature;BME280_humidity;BME280_pressure;Samples;Min_cycle;Max_cycle;Signal;HPM_P1;HPM_P2
2022/03/12 00:02:36;;;;;;;9.37;4.53;;;;;;;;;;4955112;28;20635;-88
2022/03/12 00:05:52;;;;;;;6.00;4.00;;;;;;;;;;4943373;29;20556;-86
2022/03/12 00:08:56;;;;;;;5.97;3.90;;;;;;;;;;4936032;29;20547;-86
2022/03/12 00:12:01;;;;;;;6.13;4.00;;;;;;;;;;4957355;28;21081;-86
2022/03/12 00:15:09;;;;;;;6.63;4.53;;;;;;;;;;4944872;29;20606;-86
2022/03/12 00:18:20;;;;;;;6.90;4.03;;;;;;;;;;4944379;29;20543;-86
2022/03/12 00:21:26;;;;;;;7.07;4.30;;;;;;;;;;4965300;28;20556;-88
2022/03/12 00:24:30;;;;;;;6.50;4.00;;;;;;;;;;4965221;28;20544;-88
2022/03/12 00:27:36;;;;;;;9.73;4.73;;;;;;;;;;4946938;29;20544;-86
2022/03/12 00:30:42;;;;;;;8.57;4.30;;;;;;;;;;4943548;29;20548;-87
2022/03/12 00:33:47;;;;;;;11.90;4.47;;;;;;;;;;4944096;29;20638;-86
2022/03/12 00:36:51;;;;;;;6.90;4.37;;;;;;;;;;4922528;29;21171;-88
2022/03/12 00:39:56;;;;;;;6.13;4.33;;;;;;;;;;4943543;29;20540;-88
2022/03/12 00:43:01;;;;;;;6.03;4.57;;;;;;;;;;4953935;28;21196;-87
2022/03/12 00:46:05;;;;;;;8.93;4.07;;;;;;;;;;4943477;29;20543;-87
2022/03/12 00:49:09;;;;;;;8.73;4.40;;;;;;;;;;4954399;29;20547;-87
2022/03/12 00:52:13;;;;;;;10.17;4.70;;;;;;;;;;4932922;28;20638;-88
2022/03/12 00:55:17;;;;;;;7.03;4.27;;;;;;;;;;4994810;23;20684;-86
2022/03/12 00:58:21;;;;;;;7.53;4.20;;;;;;;;;;4961618;28;20598;-85
2022/03/12 01:01:26;;;;;;;6.13;4.13;;;;;;;;;;4972961;28;20542;-85
2022/03/12 01:04:31;;;;;;;6.30;4.27;;;;;;;;;;5032239;28;20634;-85
2022/03/12 01:07:35;;;;;;;7.27;4.70;;;;;;;;;;5039896;28;20593;-85
2022/03/12 01:10:41;;;;;;;5.87;4.07;;;;;;;;;;5040286;28;20597;-85
2022/03/12 01:13:44;;;;;;;7.67;4.07;;;;;;;;;;5039949;28;20614;-85
2022/03/12 01:16:49;;;;;;;6.67;4.03;;;;;;;;;;5051447;28;20589;-85
2022/03/12 01:19:53;;;;;;;6.93;4.20;;;;;;;;;;5039784;28;20558;-85
2022/03/12 01:22:57;;;;;;;6.90;4.67;;;;;;;;;;5062814;28;20542;-85
2022/03/12 01:26:01;;;;;;;7.37;4.63;;;;;;;;;;5051322;28;20538;-85
2022/03/12 01:29:07;;;;;;;7.67;4.13;;;;;;;;;;5051065;28;20530;-85
2022/03/12 01:32:12;;;;;;;7.87;4.73;;;;;;;;;;5039741;28;20538;-85
2022/03/12 01:35:16;;;;;;;6.77;4.37;;;;;;;;;;5050649;28;21178;-85
2022/03/12 01:38:29;;;;;;;6.03;4.20;;;;;;;;;;5039546;28;20586;-85
2022/03/12 01:41:40;;;;;;;8.93;4.50;;;;;;;;;;5062791;28;20866;-85
2022/03/12 01:44:46;;;;;;;7.43;4.10;;;;;;;;;;5062132;28;20613;-85
2022/03/12 01:47:54;;;;;;;8.03;4.60;;;;;;;;;;5050915;28;20530;-85
2022/03/12 01:50:59;;;;;;;8.13;4.30;;;;;;;;;;5050600;28;20554;-85
2022/03/12 01:54:03;;;;;;;8.73;4.47;;;;;;;;;;5050216;28;20976;-85
2022/03/12 01:57:09;;;;;;;6.37;4.00;;;;;;;;;;5062158;28;20593;-85
2022/03/12 02:00:25;;;;;;;6.27;4.10;;;;;;;;;;5061838;28;20558;-85
2022/03/12 02:03:29;;;;;;;7.37;4.80;;;;;;;;;;5038850;28;20625;-85
2022/03/12 02:06:34;;;;;;;12.60;4.60;;;;;;;;;;5038856;28;20941;-85
2022/03/12 02:09:39;;;;;;;5.63;4.10;;;;;;;;;;5050985;28;20543;-83
2022/03/12 02:12:43;;;;;;;6.40;4.17;;;;;;;;;;5062688;28;20575;-84
2022/03/12 02:15:47;;;;;;;7.50;5.03;;;;;;;;;;5062931;28;20894;-84
2022/03/12 02:18:51;;;;;;;7.17;4.40;;;;;;;;;;5051202;28;20530;-84
2022/03/12 02:21:58;;;;;;;8.67;4.60;;;;;;;;;;5062690;28;20542;-84
2022/03/12 02:25:02;;;;;;;6.93;4.43;;;;;;;;;;5062627;28;20621;-84
2022/03/12 02:28:18;;;;;;;8.70;4.77;;;;;;;;;;5040066;28;20542;-84
2022/03/12 02:31:25;;;;;;;7.17;5.03;;;;;;;;;;5040253;28;21056;-84
2022/03/12 02:34:36;;;;;;;7.00;3.83;;;;;;;;;;5074557;28;20613;-84
2022/03/12 02:37:45;;;;;;;10.87;4.70;;;;;;;;;;5052091;28;20641;-84
2022/03/12 02:40:51;;;;;;;8.50;4.00;;;;;;;;;;5041189;28;20546;-84
2022/03/12 02:43:55;;;;;;;6.13;4.40;;;;;;;;;;5040069;28;20625;-84
2022/03/12 02:47:15;;;;;;;6.17;4.33;;;;;;;;;;5040923;28;20597;-84
2022/03/12 02:50:19;;;;;;;8.30;4.93;;;;;;;;;;5039574;28;20590;-84
2022/03/12 02:53:25;;;;;;;8.00;4.37;;;;;;;;;;5051465;28;20534;-84
2022/03/12 02:56:29;;;;;;;6.77;4.37;;;;;;;;;;5039604;28;20546;-84
2022/03/12 02:59:33;;;;;;;7.07;3.83;;;;;;;;;;5051566;28;20601;-85
2022/03/12 03:02:41;;;;;;;7.37;4.27;;;;;;;;;;5050687;28;20598;-84
2022/03/12 03:05:47;;;;;;;6.43;4.47;;;;;;;;;;5039717;28;20550;-84
2022/03/12 03:08:51;;;;;;;10.43;4.50;;;;;;;;;;5066524;28;20530;-84
2022/03/12 03:11:57;;;;;;;6.27;4.43;;;;;;;;;;5044021;28;20548;-84
2022/03/12 03:15:01;;;;;;;7.83;4.63;;;;;;;;;;5066047;28;20621;-84
2022/03/12 03:18:12;;;;;;;6.23;4.27;;;;;;;;;;5066491;28;20593;-84
2022/03/12 03:21:17;;;;;;;5.23;4.10;;;;;;;;;;5055197;28;20550;-84
2022/03/12 03:24:22;;;;;;;7.77;4.83;;;;;;;;;;5043745;28;20625;-84
2022/03/12 03:27:26;;;;;;;7.47;4.40;;;;;;;;;;5044057;28;20546;-84
2022/03/12 03:30:33;;;;;;;8.43;4.40;;;;;;;;;;5066036;28;21146;-84
2022/03/12 03:33:38;;;;;;;7.63;4.57;;;;;;;;;;5043109;28;20613;-84
2022/03/12 03:36:42;;;;;;;7.50;4.30;;;;;;;;;;5043408;28;20870;-84
2022/03/12 03:39:46;;;;;;;7.67;4.10;;;;;;;;;;5043423;28;20866;-84
2022/03/12 03:42:50;;;;;;;5.30;3.87;;;;;;;;;;5054488;28;20534;-84
2022/03/12 03:45:59;;;;;;;6.57;4.17;;;;;;;;;;5054164;28;20550;-84
2022/03/12 03:49:04;;;;;;;6.97;4.57;;;;;;;;;;5065870;28;20593;-84
2022/03/12 03:52:09;;;;;;;7.63;4.67;;;;;;;;;;5065833;28;21139;-84
2022/03/12 03:55:13;;;;;;;6.90;4.43;;;;;;;;;;5065279;28;20641;-84
2022/03/12 03:58:17;;;;;;;7.60;4.50;;;;;;;;;;5054201;28;20601;-84
2022/03/12 04:01:22;;;;;;;8.03;4.53;;;;;;;;;;5054055;28;20542;-84
2022/03/12 04:04:28;;;;;;;9.63;4.83;;;;;;;;;;5065303;28;20965;-84
2022/03/12 04:07:32;;;;;;;7.03;4.27;;;;;;;;;;5053629;28;20534;-84
2022/03/12 04:10:37;;;;;;;7.87;4.10;;;;;;;;;;5053754;28;20534;-84
2022/03/12 04:13:41;;;;;;;10.73;4.40;;;;;;;;;;5042128;28;20620;-84
2022/03/12 04:16:45;;;;;;;8.53;5.00;;;;;;;;;;5053831;28;20541;-84
2022/03/12 04:19:49;;;;;;;7.03;4.67;;;;;;;;;;5053472;28;20542;-84
2022/03/12 04:22:55;;;;;;;8.27;4.33;;;;;;;;;;5053619;28;20534;-84
2022/03/12 04:26:00;;;;;;;10.97;4.50;;;;;;;;;;5053572;28;20605;-84
2022/03/12 04:29:08;;;;;;;6.60;4.03;;;;;;;;;;5053215;28;20558;-84
2022/03/12 04:32:12;;;;;;;7.27;4.40;;;;;;;;;;5065020;28;20542;-84
2022/03/12 04:35:17;;;;;;;7.33;4.73;;;;;;;;;;5064555;28;20617;-84
2022/03/12 04:38:22;;;;;;;8.97;4.20;;;;;;;;;;5053254;28;20586;-84
2022/03/12 04:41:30;;;;;;;7.53;4.73;;;;;;;;;;5041792;28;20601;-84
2022/03/12 04:44:34;;;;;;;7.67;4.20;;;;;;;;;;5064365;28;20629;-84
2022/03/12 04:47:42;;;;;;;9.13;4.37;;;;;;;;;;5076321;28;20526;-84
2022/03/12 04:50:46;;;;;;;9.00;4.30;;;;;;;;;;5053135;28;20550;-84
2022/03/12 04:53:55;;;;;;;6.23;4.10;;;;;;;;;;5064565;28;20633;-84
2022/03/12 04:56:59;;;;;;;9.60;4.70;;;;;;;;;;5052850;28;20534;-84
2022/03/12 05:00:05;;;;;;;9.83;4.77;;;;;;;;;;5052742;28;21072;-83
2022/03/12 05:03:18;;;;;;;8.30;4.80;;;;;;;;;;5052553;28;20530;-83
2022/03/12 05:06:23;;;;;;;9.07;4.30;;;;;;;;;;5064034;28;20594;-84
2022/03/12 05:09:27;;;;;;;7.93;4.60;;;;;;;;;;5041364;28;21088;-84
2022/03/12 05:12:32;;;;;;;6.37;3.97;;;;;;;;;;5041391;28;20558;-84
2022/03/12 05:15:39;;;;;;;6.63;4.33;;;;;;;;;;5052473;28;20874;-84
2022/03/12 05:18:43;;;;;;;7.00;4.33;;;;;;;;;;5064142;28;20590;-84
2022/03/12 05:21:48;;;;;;;7.17;4.13;;;;;;;;;;5052713;28;20538;-84
2022/03/12 05:24:52;;;;;;;8.30;4.33;;;;;;;;;;5052083;28;20621;-84
2022/03/12 05:27:58;;;;;;;7.80;4.33;;;;;;;;;;5052314;28;20538;-84
2022/03/12 05:31:04;;;;;;;6.40;4.17;;;;;;;;;;5063106;28;20546;-84
2022/03/12 05:34:08;;;;;;;7.57;4.27;;;;;;;;;;5054408;28;20965;-83
2022/03/12 05:37:13;;;;;;;49.10;22.30;;;;;;;;;;5066287;28;20530;-83
2022/03/12 05:40:25;;;;;;;62.13;30.90;;;;;;;;;;5054934;28;20549;-83
2022/03/12 05:43:30;;;;;;;29.93;14.87;;;;;;;;;;5070161;28;20628;-84
2022/03/12 05:46:34;;;;;;;17.03;9.30;;;;;;;;;;5050956;28;20597;-85
2022/03/12 05:49:39;;;;;;;12.47;6.77;;;;;;;;;;5040008;28;20554;-85
2022/03/12 05:52:48;;;;;;;23.27;8.70;;;;;;;;;;5053772;28;20546;-83
2022/03/12 05:55:53;;;;;;;14.53;7.87;;;;;;;;;;5041037;28;20547;-83
2022/03/12 05:58:57;;;;;;;11.87;7.13;;;;;;;;;;5040526;28;20672;-83
2022/03/12 06:02:01;;;;;;;11.63;6.53;;;;;;;;;;5052392;28;20987;-83
2022/03/12 06:05:08;;;;;;;8.07;5.73;;;;;;;;;;5050219;28;20636;-85
2022/03/12 06:08:14;;;;;;;8.37;5.53;;;;;;;;;;5062044;28;20530;-85
2022/03/12 06:11:19;;;;;;;15.10;5.97;;;;;;;;;;5039076;28;20542;-85
2022/03/12 06:14:24;;;;;;;23.87;7.10;;;;;;;;;;5050278;28;20640;-85
2022/03/12 06:17:28;;;;;;;13.00;5.70;;;;;;;;;;5050802;28;20545;-85
2022/03/12 06:20:37;;;;;;;18.13;9.87;;;;;;;;;;5039204;28;20555;-85
2022/03/12 06:23:41;;;;;;;11.43;7.50;;;;;;;;;;5050704;28;20621;-85
2022/03/12 06:26:45;;;;;;;9.63;6.00;;;;;;;;;;5050577;28;20543;-85
2022/03/12 06:29:49;;;;;;;10.87;5.17;;;;;;;;;;5049961;28;20976;-85
2022/03/12 06:32:55;;;;;;;6.93;4.53;;;;;;;;;;5050112;28;20610;-85
2022/03/12 06:36:02;;;;;;;9.50;4.80;;;;;;;;;;5049838;28;20550;-85
2022/03/12 06:39:07;;;;;;;9.97;5.40;;;;;;;;;;5061365;28;20593;-85
2022/03/12 06:42:11;;;;;;;11.53;6.30;;;;;;;;;;5037865;28;20539;-85
2022/03/12 06:45:16;;;;;;;8.93;5.53;;;;;;;;;;5038315;28;20646;-85
2022/03/12 06:48:22;;;;;;;9.23;4.83;;;;;;;;;;5038461;28;20593;-85
2022/03/12 06:51:26;;;;;;;12.80;5.10;;;;;;;;;;5049542;28;20550;-85
2022/03/12 06:54:31;;;;;;;9.37;4.73;;;;;;;;;;5061613;28;20752;-83
2022/03/12 06:57:36;;;;;;;7.67;5.00;;;;;;;;;;5073188;28;20534;-83
2022/03/12 07:00:41;;;;;;;7.83;4.93;;;;;;;;;;5039118;28;20538;-83
2022/03/12 07:03:45;;;;;;;9.23;4.77;;;;;;;;;;5061455;28;20969;-83
2022/03/12 07:06:50;;;;;;;7.20;4.77;;;;;;;;;;5050383;28;20538;-83
2022/03/12 07:09:54;;;;;;;9.57;4.67;;;;;;;;;;5050431;28;20593;-83
2022/03/12 07:12:58;;;;;;;8.20;5.27;;;;;;;;;;5061277;28;20605;-83
2022/03/12 07:16:03;;;;;;;8.90;5.70;;;;;;;;;;5050083;28;21056;-83
2022/03/12 07:19:07;;;;;;;9.00;4.73;;;;;;;;;;5050198;28;21135;-83
2022/03/12 07:22:11;;;;;;;8.07;4.70;;;;;;;;;;5050063;28;21075;-83
2022/03/12 07:25:16;;;;;;;7.73;4.77;;;;;;;;;;5049735;28;20622;-83
2022/03/12 07:28:20;;;;;;;7.63;4.77;;;;;;;;;;5038078;28;20551;-83
2022/03/12 07:31:25;;;;;;;8.60;4.93;;;;;;;;;;5050119;28;20538;-83
2022/03/12 07:34:31;;;;;;;7.90;4.87;;;;;;;;;;5060871;28;20965;-83
2022/03/12 07:37:35;;;;;;;8.20;4.93;;;;;;;;;;5038217;28;20538;-82
2022/03/12 07:40:40;;;;;;;6.57;4.20;;;;;;;;;;5049521;28;20578;-83
2022/03/12 07:43:44;;;;;;;11.27;4.30;;;;;;;;;;5049273;28;20625;-83
2022/03/12 07:46:48;;;;;;;8.10;4.43;;;;;;;;;;5061117;28;20538;-83
2022/03/12 07:49:52;;;;;;;8.20;4.50;;;;;;;;;;5062176;28;20542;-83
2022/03/12 07:52:57;;;;;;;8.93;4.23;;;;;;;;;;5051395;28;20542;-84
2022/03/12 07:56:01;;;;;;;7.30;4.50;;;;;;;;;;5042440;28;21056;-84
2022/03/12 07:59:05;;;;;;;6.33;4.20;;;;;;;;;;5065049;28;20589;-84
2022/03/12 08:02:09;;;;;;;7.43;4.47;;;;;;;;;;5065054;28;20546;-84
2022/03/12 08:05:16;;;;;;;10.73;5.10;;;;;;;;;;5041424;28;20949;-84
2022/03/12 08:08:20;;;;;;;6.70;4.80;;;;;;;;;;5064815;28;20526;-84
2022/03/12 08:11:25;;;;;;;6.53;4.80;;;;;;;;;;5053360;28;20937;-84
2022/03/12 08:14:32;;;;;;;10.73;4.93;;;;;;;;;;5052644;28;20625;-84
2022/03/12 08:17:37;;;;;;;7.33;4.93;;;;;;;;;;5054315;28;20534;-84
2022/03/12 08:20:41;;;;;;;8.57;4.47;;;;;;;;;;5064052;28;20546;-84
2022/03/12 08:23:45;;;;;;;12.53;5.17;;;;;;;;;;5064296;28;20948;-84
2022/03/12 08:26:50;;;;;;;7.87;4.70;;;;;;;;;;5052896;28;20601;-84
2022/03/12 08:29:55;;;;;;;9.70;5.33;;;;;;;;;;5064661;28;20535;-84
2022/03/12 08:32:59;;;;;;;6.40;4.60;;;;;;;;;;5064126;28;20538;-84
2022/03/12 08:36:05;;;;;;;10.50;5.10;;;;;;;;;;5041276;28;20546;-84
2022/03/12 08:39:09;;;;;;;7.13;4.53;;;;;;;;;;5052493;28;20594;-84
2022/03/12 08:42:13;;;;;;;13.87;5.30;;;;;;;;;;5041035;28;20546;-84
2022/03/12 08:45:17;;;;;;;7.43;4.90;;;;;;;;;;5052106;28;20215;-84
2022/03/12 08:48:21;;;;;;;8.37;5.53;;;;;;;;;;5063747;28;20175;-84
2022/03/12 08:51:25;;;;;;;7.03;5.00;;;;;;;;;;5051889;28;20630;-84
2022/03/12 08:54:29;;;;;;;10.13;5.60;;;;;;;;;;5040515;28;20219;-84
2022/03/12 08:57:33;;;;;;;8.57;5.17;;;;;;;;;;5064117;28;20195;-84
2022/03/12 09:00:38;;;;;;;8.50;5.33;;;;;;;;;;5052094;28;20176;-84
2022/03/12 09:03:42;;;;;;;10.33;6.00;;;;;;;;;;5051352;28;20214;-85
2022/03/12 09:06:47;;;;;;;9.73;5.50;;;;;;;;;;5040352;28;20183;-85
2022/03/12 09:09:52;;;;;;;8.30;5.50;;;;;;;;;;5063149;28;20622;-84
2022/03/12 09:12:56;;;;;;;7.40;5.30;;;;;;;;;;5040470;28;20184;-84
2022/03/12 09:16:01;;;;;;;10.63;5.80;;;;;;;;;;5062976;28;20195;-84
2022/03/12 09:19:05;;;;;;;9.73;5.57;;;;;;;;;;5039834;28;20218;-84
2022/03/12 09:22:09;;;;;;;10.63;5.80;;;;;;;;;;5051707;28;20618;-84
2022/03/12 09:25:14;;;;;;;12.33;6.27;;;;;;;;;;5063310;28;20211;-84
2022/03/12 09:28:20;;;;;;;10.23;6.00;;;;;;;;;;5040815;28;20524;-84
2022/03/12 09:31:24;;;;;;;7.93;5.80;;;;;;;;;;5051741;28;20171;-84
2022/03/12 09:34:28;;;;;;;9.90;6.03;;;;;;;;;;5039939;28;20211;-84
2022/03/12 09:37:34;;;;;;;10.87;6.50;;;;;;;;;;5063127;28;20180;-85
2022/03/12 09:40:38;;;;;;;11.10;6.20;;;;;;;;;;5062744;28;20207;-85
2022/03/12 09:43:42;;;;;;;10.90;6.57;;;;;;;;;;5062483;28;20232;-85
2022/03/12 09:46:47;;;;;;;11.10;6.33;;;;;;;;;;5050716;28;20569;-85
2022/03/12 09:49:52;;;;;;;8.83;6.33;;;;;;;;;;5039340;28;20195;-84
2022/03/12 09:52:56;;;;;;;10.57;6.17;;;;;;;;;;5050803;28;20196;-84
2022/03/12 09:56:00;;;;;;;11.27;6.13;;;;;;;;;;5050729;28;20183;-84
2022/03/12 09:59:05;;;;;;;10.90;7.03;;;;;;;;;;5038864;28;20216;-85
2022/03/12 10:02:09;;;;;;;13.37;6.97;;;;;;;;;;5062134;28;20180;-85
2022/03/12 10:05:13;;;;;;;12.93;6.90;;;;;;;;;;5061734;28;20218;-86
2022/03/12 10:08:18;;;;;;;9.60;7.03;;;;;;;;;;5039413;28;20198;-86
2022/03/12 10:11:22;;;;;;;10.27;6.80;;;;;;;;;;5061793;28;20191;-86
2022/03/12 10:14:26;;;;;;;11.90;7.13;;;;;;;;;;5050180;28;20222;-86
2022/03/12 10:17:30;;;;;;;9.73;6.90;;;;;;;;;;5050556;28;20542;-86
2022/03/12 10:20:34;;;;;;;12.40;7.57;;;;;;;;;;5061577;28;20665;-86
2022/03/12 10:23:38;;;;;;;11.30;7.93;;;;;;;;;;5050119;28;20222;-86
2022/03/12 10:26:42;;;;;;;11.23;7.23;;;;;;;;;;5049888;28;20222;-86
2022/03/12 10:29:46;;;;;;;10.63;7.53;;;;;;;;;;5049810;28;20191;-86
2022/03/12 10:32:51;;;;;;;12.07;8.00;;;;;;;;;;5038687;28;20171;-86
2022/03/12 10:36:08;;;;;;;10.53;7.47;;;;;;;;;;5049965;28;20179;-86
2022/03/12 10:39:13;;;;;;;11.00;7.57;;;;;;;;;;5050092;28;20227;-86
2022/03/12 10:42:17;;;;;;;13.53;8.40;;;;;;;;;;5038781;28;20175;-86
2022/03/12 10:45:23;;;;;;;12.60;7.93;;;;;;;;;;5061559;28;20222;-86
2022/03/12 10:48:37;;;;;;;16.07;8.80;;;;;;;;;;5050108;28;20558;-86
2022/03/12 10:51:41;;;;;;;12.13;7.80;;;;;;;;;;5038540;28;20183;-86
2022/03/12 10:54:45;;;;;;;11.13;8.23;;;;;;;;;;5060848;28;20727;-85
2022/03/12 10:58:02;;;;;;;11.87;8.07;;;;;;;;;;5049724;28;20182;-86
2022/03/12 11:01:06;;;;;;;15.23;8.50;;;;;;;;;;5060907;28;20228;-86
2022/03/12 11:04:23;;;;;;;13.93;8.80;;;;;;;;;;5072667;28;20698;-86
2022/03/12 11:07:29;;;;;;;11.80;8.23;;;;;;;;;;5049518;28;20195;-86
2022/03/12 11:10:37;;;;;;;14.83;9.10;;;;;;;;;;5049832;28;20195;-86
2022/03/12 11:13:47;;;;;;;12.00;9.00;;;;;;;;;;5061331;28;20222;-86
2022/03/12 11:16:56;;;;;;;13.43;9.13;;;;;;;;;;5050007;28;20184;-86
2022/03/12 11:20:00;;;;;;;114.50;12.60;;;;;;;;;;5061239;28;20207;-87
2022/03/12 11:23:09;;;;;;;10.83;7.97;;;;;;;;;;5038526;28;20186;-87
2022/03/12 11:26:13;;;;;;;13.57;9.20;;;;;;;;;;5038311;28;20202;-86
2022/03/12 11:29:23;;;;;;;13.77;9.63;;;;;;;;;;5041854;28;20178;-86
2022/03/12 11:32:30;;;;;;;11.37;9.00;;;;;;;;;;5065220;28;20184;-86
2022/03/12 11:35:45;;;;;;;14.47;9.27;;;;;;;;;;5064890;28;20178;-86
2022/03/12 11:38:50;;;;;;;14.40;8.93;;;;;;;;;;5065117;28;20187;-86
2022/03/12 11:42:12;;;;;;;24.33;9.73;;;;;;;;;;5064838;28;20179;-86
2022/03/12 11:45:20;;;;;;;15.87;9.60;;;;;;;;;;5052920;28;20578;-86
2022/03/12 11:48:24;;;;;;;14.93;10.10;;;;;;;;;;5053563;28;20519;-86
2022/03/12 11:51:29;;;;;;;17.33;9.90;;;;;;;;;;5053029;28;20650;-86
2022/03/12 11:54:41;;;;;;;13.63;8.77;;;;;;;;;;5075622;28;20229;-86
2022/03/12 11:57:47;;;;;;;13.87;9.23;;;;;;;;;;5053761;28;20642;-86
2022/03/12 12:00:51;;;;;;;13.90;10.07;;;;;;;;;;5053762;28;20223;-86
2022/03/12 12:03:56;;;;;;;14.57;9.70;;;;;;;;;;5052928;28;20235;-86
2022/03/12 12:07:01;;;;;;;17.03;9.70;;;;;;;;;;5064245;28;20192;-86
2022/03/12 12:10:10;;;;;;;13.57;8.73;;;;;;;;;;5042172;28;20647;-86
2022/03/12 12:13:14;;;;;;;17.60;9.53;;;;;;;;;;5063927;28;20192;-86
2022/03/12 12:16:22;;;;;;;14.33;9.30;;;;;;;;;;5041253;28;20659;-86
2022/03/12 12:19:27;;;;;;;17.27;10.47;;;;;;;;;;5063900;28;20187;-86
2022/03/12 12:22:31;;;;;;;13.20;9.80;;;;;;;;;;5052504;28;20206;-86
2022/03/12 12:25:37;;;;;;;18.07;10.43;;;;;;;;;;5063959;28;20199;-86
2022/03/12 12:28:50;;;;;;;15.60;10.70;;;;;;;;;;5063658;28;20210;-86
2022/03/12 12:32:02;;;;;;;16.20;9.80;;;;;;;;;;5052564;28;20198;-86
2022/03/12 12:35:20;;;;;;;15.27;10.07;;;;;;;;;;5063386;28;20235;-86
2022/03/12 12:38:24;;;;;;;15.47;10.43;;;;;;;;;;5074309;28;20199;-86
2022/03/12 12:42:05;;;;;;;16.07;10.97;;;;;;;;;;5040224;28;20210;-87
2022/03/12 12:45:14;;;;;;;16.13;11.27;;;;;;;;;;5051232;28;20578;-87
2022/03/12 12:48:33;;;;;;;15.43;10.93;;;;;;;;;;5051698;28;20202;-87
2022/03/12 12:51:51;;;;;;;14.60;10.57;;;;;;;;;;5051122;28;20224;-86
2022/03/12 12:55:03;;;;;;;17.87;11.20;;;;;;;;;;5053089;28;20732;-86
2022/03/12 12:58:08;;;;;;;17.50;10.93;;;;;;;;;;5040419;28;20667;-86
2022/03/12 13:01:17;;;;;;;14.60;10.63;;;;;;;;;;5039905;28;20222;-86
2022/03/12 13:04:48;;;;;;;17.80;10.83;;;;;;;;;;5040024;28;20234;-86
2022/03/12 13:08:03;;;;;;;15.73;10.17;;;;;;;;;;5039985;28;20195;-85
2022/03/12 13:11:26;;;;;;;16.23;10.70;;;;;;;;;;5039295;28;20194;-85
2022/03/12 13:14:42;;;;;;;16.33;11.63;;;;;;;;;;5040229;28;20237;-84
2022/03/12 13:17:47;;;;;;;19.77;10.97;;;;;;;;;;5036252;28;20674;-84
2022/03/12 13:20:53;;;;;;;14.00;10.30;;;;;;;;;;5062226;28;20214;-87
2022/03/12 13:23:58;;;;;;;20.47;10.93;;;;;;;;;;5037571;28;20304;-87
2022/03/12 13:27:04;;;;;;;16.57;10.37;;;;;;;;;;5030952;28;20203;-87
2022/03/12 13:30:23;;;;;;;15.37;9.77;;;;;;;;;;5047069;28;20574;-87
2022/03/12 13:33:29;;;;;;;14.33;10.63;;;;;;;;;;5054924;28;20250;-87
2022/03/12 13:36:35;;;;;;;19.40;11.13;;;;;;;;;;5031447;28;20182;-87
2022/03/12 13:39:39;;;;;;;17.20;11.43;;;;;;;;;;5031364;28;20298;-87
2022/03/12 13:42:49;;;;;;;15.63;10.77;;;;;;;;;;5046182;28;20203;-87
2022/03/12 13:45:59;;;;;;;15.50;11.20;;;;;;;;;;5039487;28;20210;-87
2022/03/12 13:49:11;;;;;;;17.20;11.03;;;;;;;;;;5039659;28;20195;-84
2022/03/12 13:52:17;;;;;;;18.63;10.70;;;;;;;;;;5050322;28;20214;-86
2022/03/12 13:55:23;;;;;;;18.30;11.07;;;;;;;;;;5049759;28;20233;-87
2022/03/12 13:58:29;;;;;;;18.47;10.83;;;;;;;;;;5050398;28;20199;-88
2022/03/12 14:01:35;;;;;;;16.70;11.27;;;;;;;;;;5049958;28;20676;-89
2022/03/12 14:04:39;;;;;;;19.20;11.50;;;;;;;;;;5048626;28;20232;-88
2022/03/12 14:07:44;;;;;;;18.97;11.43;;;;;;;;;;5050571;28;20202;-87
2022/03/12 14:10:55;;;;;;;18.07;10.33;;;;;;;;;;5039194;28;20202;-89
2022/03/12 14:14:12;;;;;;;18.10;10.67;;;;;;;;;;5031844;28;20242;-89
2022/03/12 14:17:27;;;;;;;31.73;12.43;;;;;;;;;;5030466;28;20195;-86
2022/03/12 14:20:36;;;;;;;18.93;11.40;;;;;;;;;;5041656;28;20211;-87
2022/03/12 14:23:40;;;;;;;21.03;11.70;;;;;;;;;;5041610;28;20698;-86
2022/03/12 14:26:55;;;;;;;18.00;10.90;;;;;;;;;;5043431;28;20210;-88
2022/03/12 14:29:59;;;;;;;15.47;10.73;;;;;;;;;;5019026;28;20191;-88
2022/03/12 14:33:04;;;;;;;18.03;11.23;;;;;;;;;;5054537;28;20198;-88
2022/03/12 14:36:08;;;;;;;19.77;10.83;;;;;;;;;;5046854;28;20562;-88
2022/03/12 14:39:14;;;;;;;15.90;10.57;;;;;;;;;;5044006;28;20190;-89
2022/03/12 14:42:21;;;;;;;17.90;11.77;;;;;;;;;;5037083;28;20705;-88
2022/03/12 14:45:25;;;;;;;17.00;10.23;;;;;;;;;;5038893;28;20230;-85
2022/03/12 14:48:29;;;;;;;18.77;11.90;;;;;;;;;;5049941;28;20190;-85
2022/03/12 14:51:33;;;;;;;17.13;10.70;;;;;;;;;;5038262;28;20202;-85
2022/03/12 14:54:39;;;;;;;13.83;9.97;;;;;;;;;;5038113;28;20585;-85
2022/03/12 14:57:44;;;;;;;15.80;10.73;;;;;;;;;;5038582;28;20183;-86
2022/03/12 15:00:49;;;;;;;15.07;10.30;;;;;;;;;;5038675;28;20214;-85
2022/03/12 15:03:54;;;;;;;14.77;10.23;;;;;;;;;;5060142;28;20325;-85
2022/03/12 15:07:06;;;;;;;15.13;10.07;;;;;;;;;;5038539;28;20190;-89
2022/03/12 15:10:20;;;;;;;15.17;9.83;;;;;;;;;;5038626;28;20182;-89
2022/03/12 15:13:25;;;;;;;15.93;10.30;;;;;;;;;;5049444;28;20554;-85
2022/03/12 15:16:30;;;;;;;16.77;9.87;;;;;;;;;;5061182;28;20183;-85
2022/03/12 15:19:35;;;;;;;14.87;9.13;;;;;;;;;;5038598;28;20182;-85
2022/03/12 15:22:43;;;;;;;16.17;9.50;;;;;;;;;;5038790;28;20190;-85
2022/03/12 15:25:54;;;;;;;15.20;9.33;;;;;;;;;;5038452;28;20187;-85
2022/03/12 15:28:58;;;;;;;13.33;8.90;;;;;;;;;;5038474;28;20544;-85
2022/03/12 15:32:18;;;;;;;12.83;8.97;;;;;;;;;;5049413;28;20176;-85
2022/03/12 15:35:42;;;;;;;15.67;8.80;;;;;;;;;;5037911;28;20222;-85
2022/03/12 15:38:48;;;;;;;15.30;8.77;;;;;;;;;;5038319;28;20187;-85
2022/03/12 15:41:52;;;;;;;13.80;8.17;;;;;;;;;;5037716;28;20230;-85
2022/03/12 15:44:57;;;;;;;12.33;7.90;;;;;;;;;;5037975;28;20219;-85
2022/03/12 15:48:01;;;;;;;13.57;7.77;;;;;;;;;;5051420;28;20670;-85
2022/03/12 15:51:08;;;;;;;14.53;8.33;;;;;;;;;;5038258;28;20187;-85
2022/03/12 15:54:12;;;;;;;13.40;8.47;;;;;;;;;;5037913;28;20223;-85
2022/03/12 15:57:16;;;;;;;11.57;7.60;;;;;;;;;;5050727;28;20187;-85
2022/03/12 16:00:23;;;;;;;12.47;7.30;;;;;;;;;;5035608;28;20187;-84
2022/03/12 16:03:30;;;;;;;13.60;7.90;;;;;;;;;;5052995;28;21676;-86
2022/03/12 16:06:34;;;;;;;13.40;7.67;;;;;;;;;;5038169;28;20683;-85
2022/03/12 16:09:38;;;;;;;10.60;7.87;;;;;;;;;;5037484;28;20694;-85
2022/03/12 16:12:49;;;;;;;12.17;7.67;;;;;;;;;;5060743;28;20175;-85
2022/03/12 16:16:00;;;;;;;17.70;7.90;;;;;;;;;;5041733;28;20182;-85
2022/03/12 16:19:06;;;;;;;11.17;7.23;;;;;;;;;;5075926;28;20202;-84
2022/03/12 16:22:13;;;;;;;13.07;7.77;;;;;;;;;;5041814;28;20215;-84
2022/03/12 16:25:19;;;;;;;12.33;7.40;;;;;;;;;;5041594;28;20222;-84
2022/03/12 16:28:24;;;;;;;14.00;7.73;;;;;;;;;;5052615;28;20557;-84
2022/03/12 16:31:28;;;;;;;16.63;7.90;;;;;;;;;;5052575;28;20191;-84
2022/03/12 16:34:32;;;;;;;13.40;7.43;;;;;;;;;;5034586;28;20728;-84
2022/03/12 16:37:36;;;;;;;12.03;8.03;;;;;;;;;;5052387;28;20208;-84
2022/03/12 16:40:41;;;;;;;12.97;7.70;;;;;;;;;;5042314;28;20179;-84
2022/03/12 16:43:45;;;;;;;16.30;9.13;;;;;;;;;;5051974;28;20215;-85
2022/03/12 16:46:50;;;;;;;14.37;8.30;;;;;;;;;;5040459;28;20606;-84
2022/03/12 16:49:54;;;;;;;11.70;7.57;;;;;;;;;;5051926;28;20540;-85
2022/03/12 16:52:59;;;;;;;12.60;7.30;;;;;;;;;;5041251;28;20187;-85
2022/03/12 16:56:05;;;;;;;12.40;7.20;;;;;;;;;;5054131;28;20179;-85
2022/03/12 16:59:09;;;;;;;13.67;7.13;;;;;;;;;;5071733;28;20527;-85
2022/03/12 17:02:13;;;;;;;11.63;6.80;;;;;;;;;;5082995;28;20206;-85
2022/03/12 17:05:17;;;;;;;13.27;6.93;;;;;;;;;;5045812;28;20219;-86
2022/03/12 17:08:22;;;;;;;15.43;7.03;;;;;;;;;;5045936;28;20184;-85
2022/03/12 17:11:30;;;;;;;12.40;6.83;;;;;;;;;;5062302;28;20647;-85
2022/03/12 17:14:34;;;;;;;20.77;7.83;;;;;;;;;;5041620;28;20212;-85
2022/03/12 17:17:40;;;;;;;15.33;7.87;;;;;;;;;;5053379;28;20180;-85
2022/03/12 17:20:44;;;;;;;12.87;7.50;;;;;;;;;;5052860;28;20180;-84
2022/03/12 17:23:49;;;;;;;17.17;9.90;;;;;;;;;;5045727;28;20215;-84
2022/03/12 17:26:59;;;;;;;20.33;11.17;;;;;;;;;;5033127;28;20176;-84
2022/03/12 17:30:10;;;;;;;15.37;8.30;;;;;;;;;;5050554;28;20563;-84
2022/03/12 17:33:14;;;;;;;12.27;6.90;;;;;;;;;;5047544;28;20187;-85
2022/03/12 17:36:18;;;;;;;41.60;23.60;;;;;;;;;;5074605;28;20184;-84
2022/03/12 17:39:22;;;;;;;12.30;6.87;;;;;;;;;;5039953;28;20184;-84
2022/03/12 17:42:26;;;;;;;12.10;6.27;;;;;;;;;;5052912;28;20689;-84
2022/03/12 17:45:31;;;;;;;11.37;5.70;;;;;;;;;;5064383;28;20219;-84
2022/03/12 17:48:36;;;;;;;12.73;5.47;;;;;;;;;;5041237;28;20184;-85
2022/03/12 17:51:42;;;;;;;9.47;5.87;;;;;;;;;;5052866;28;20180;-84
2022/03/12 17:54:47;;;;;;;8.53;4.93;;;;;;;;;;5041239;28;20231;-84
2022/03/12 17:57:51;;;;;;;11.00;5.17;;;;;;;;;;5051047;28;20535;-84
2022/03/12 18:00:55;;;;;;;7.63;4.97;;;;;;;;;;5039435;28;20626;-84
2022/03/12 18:04:00;;;;;;;8.70;5.40;;;;;;;;;;5061884;28;20219;-84
2022/03/12 18:07:04;;;;;;;7.97;4.87;;;;;;;;;;5051166;28;20187;-84
2022/03/12 18:10:09;;;;;;;7.53;4.87;;;;;;;;;;5039462;28;20207;-84
2022/03/12 18:13:17;;;;;;;10.27;4.40;;;;;;;;;;5050604;28;20172;-85
2022/03/12 18:16:22;;;;;;;9.27;4.77;;;;;;;;;;5039448;28;20184;-86
2022/03/12 18:19:26;;;;;;;7.43;4.40;;;;;;;;;;5038823;28;20187;-86
2022/03/12 18:22:32;;;;;;;7.70;4.83;;;;;;;;;;5039861;28;20207;-86
2022/03/12 18:25:36;;;;;;;7.70;4.60;;;;;;;;;;5050607;28;20172;-85